New Rumley, OH (43984)

8:09 AM EDT on September 21, 2014 (GMT -0400)
Sunset Gardens | Change Station
CLOSE
Current Station
Personal Weather Station
Location: Wintersville, OH
Elevation: 1150 ft
Nearby Weather Stations

Elev 1150 ft 40.38 °N, 80.72 °W | Updated 3 minutes ago

Partly Cloudy
Partly Cloudy
66.4 °F
Feels Like 66.4 °F
N
1.0
Wind Variable Wind from SW
Gusts 1.0 mph

Today
High -- | Low -- °F
--% Chance of Precip.
Yesterday
High -- | Low -- °F
Precip. -- in
7:10 AM 7:22 PM
Waning Crescent, 7% visible
Pressure 29.76 in
Visibility 10.0 miles
Clouds Mostly Cloudy 3200 ft
Mostly Cloudy 4000 ft
Dew Point 64 °F
Humidity 91%
Rainfall 0.00 in
Snow Depth Not available.
UV 0 out of 12
Pollen .70 out of 12
Air Quality Not available.
Flu Activity Not available.
METAR KPHD 211153Z AUTO VRB05KT 10SM BKN032 BKN040 21/18 A2978 RMK AO2 SLP078 T02060178 10206 20200 55011

More Conditions Fewer Conditions

Pressure 29.76 in
Visibility 10.0 miles
Clouds Mostly Cloudy 3200 ft
Mostly Cloudy 4000 ft
Dew Point 64 °F
Humidity 91%
Rainfall 0.00 in
Snow Depth Not available.
UV 0 out of 12
Pollen .70 out of 12
Air Quality Not available.
Flu Activity Not available.
METAR KPHD 211153Z AUTO VRB05KT 10SM BKN032 BKN040 21/18 A2978 RMK AO2 SLP078 T02060178 10206 20200 55011

More Conditions Fewer Conditions

10-Day Weather Forecast

Almanac

Astronomy

Sep. 21, 2014 Rise Set
Actual Time 7:10 AM EDT 7:22 PM EDT
Civil Twilight 6:43 AM EDT 7:50 PM EDT
Nautical Twilight 6:11 AM EDT 8:21 PM EDT
Astronomical Twilight 5:39 AM EDT 8:54 PM EDT
Moon 4:42 AM EDT 5:58 PM EDT
Length of Visible Light 13h 06m
Length of Day
12h 12m
Tomorrow will be 2m 40s shorter.
Waning Crescent, 7% of the Moon is Illuminated
Today
Waning Crescent
Sep 24
New
Oct 1
First Quarter
Oct 8
Full
Oct 15
Last Quarter

Today's Extremes

State Highs State Lows

Community

WunderPhotos

Upload Photos

1,755,126 photos uploaded!

Nearby

Snow Depth

Station Depth Elevation
No new snow has been reported.

Earthquake Activity

City Distance Mag. Time & Date
No recent earthquake activity has been reported nearby.
Minimum magnitude displayed is 2.5.

Coastal Water Temperatures

Place Temperature
No Stations Reporting

Nearby Weather Stations